createdAt,value
2022-11-08T00:00:15.468Z,93.40
2022-11-08T00:02:43.190Z,93.50
2022-11-08T00:05:29.051Z,93.60
2022-11-08T00:08:15.237Z,94.00
2022-11-08T00:11:01.797Z,93.60
2022-11-08T00:13:48.072Z,93.60
2022-11-08T00:16:15.333Z,93.90
2022-11-08T00:18:42.623Z,93.70
2022-11-08T00:21:10.042Z,93.60
2022-11-08T00:23:37.492Z,93.60
2022-11-08T00:26:05.109Z,93.50
2022-11-08T00:28:32.610Z,93.50
2022-11-08T00:31:08.013Z,93.60
2022-11-08T00:33:35.596Z,93.60
2022-11-08T00:36:03.941Z,93.50
2022-11-08T00:38:34.286Z,93.40
2022-11-08T00:41:01.579Z,93.20
2022-11-08T00:43:28.863Z,93.10
2022-11-08T00:45:56.149Z,93.10
2022-11-08T00:48:23.425Z,93.10
2022-11-08T00:50:50.764Z,93.10
2022-11-08T00:53:18.589Z,93.00
2022-11-08T00:55:45.857Z,92.90
2022-11-08T00:58:13.133Z,92.90
2022-11-08T01:00:40.425Z,93.00
2022-11-08T01:03:19.816Z,93.00
2022-11-08T01:05:52.624Z,93.00
2022-11-08T01:08:22.270Z,93.00
2022-11-08T01:10:51.720Z,93.00
2022-11-08T01:13:19.553Z,93.00
2022-11-08T01:15:46.952Z,93.00
2022-11-08T01:18:16.445Z,93.00
2022-11-08T01:20:45.418Z,92.90
2022-11-08T01:23:13.794Z,92.90
2022-11-08T01:25:46.640Z,93.00
2022-11-08T01:28:14.082Z,93.00
2022-11-08T01:30:43.321Z,93.00
2022-11-08T01:33:11.920Z,93.20
2022-11-08T01:35:40.137Z,93.10
2022-11-08T01:38:07.417Z,93.10
2022-11-08T01:40:43.161Z,93.10
2022-11-08T01:43:31.668Z,93.10
2022-11-08T01:46:29.629Z,93.30
2022-11-08T01:49:17.168Z,93.30
2022-11-08T01:52:03.801Z,93.50
2022-11-08T01:54:59.013Z,93.50
2022-11-08T01:57:38.615Z,93.40
2022-11-08T02:00:08.748Z,93.40
2022-11-08T02:02:38.937Z,93.30
2022-11-08T02:05:24.610Z,93.20
2022-11-08T02:08:03.004Z,93.20
2022-11-08T02:10:40.724Z,93.30
2022-11-08T02:13:15.155Z,93.10
2022-11-08T02:15:43.341Z,93.40
2022-11-08T02:18:11.388Z,93.20
2022-11-08T02:20:48.871Z,93.30
2022-11-08T02:23:23.708Z,93.30
2022-11-08T02:25:51.005Z,93.20
2022-11-08T02:28:18.900Z,93.20
2022-11-08T02:30:46.439Z,93.10
2022-11-08T02:33:23.378Z,93.20
2022-11-08T02:35:56.033Z,93.10
2022-11-08T02:38:25.785Z,93.10
2022-11-08T02:40:55.228Z,93.00
2022-11-08T02:43:24.212Z,93.20
2022-11-08T02:45:52.711Z,93.20
2022-11-08T02:48:20.794Z,93.20
2022-11-08T02:50:48.518Z,93.20
2022-11-08T02:53:16.033Z,93.10
2022-11-08T02:55:43.694Z,93.10
2022-11-08T02:58:12.411Z,93.40
2022-11-08T03:00:40.925Z,93.20
2022-11-08T03:03:08.316Z,93.20
2022-11-08T03:05:36.205Z,93.10
2022-11-08T03:08:03.789Z,93.20
2022-11-08T03:10:31.184Z,93.10
2022-11-08T03:13:01.121Z,93.40
2022-11-08T03:15:29.160Z,93.50
2022-11-08T03:17:57.282Z,93.40
2022-11-08T03:20:29.560Z,93.40
2022-11-08T03:23:05.135Z,93.50
2022-11-08T03:25:33.345Z,93.40
2022-11-08T03:28:08.814Z,93.50
2022-11-08T03:30:37.031Z,93.50
2022-11-08T03:33:04.997Z,93.20
2022-11-08T03:35:32.369Z,93.20
2022-11-08T03:37:59.985Z,93.10
2022-11-08T03:40:27.557Z,93.10
2022-11-08T03:42:58.286Z,93.00
2022-11-08T03:45:25.895Z,93.00
2022-11-08T03:47:53.472Z,92.90
2022-11-08T03:50:20.833Z,92.90
2022-11-08T03:52:50.864Z,92.80
2022-11-08T03:55:20.115Z,92.90
2022-11-08T03:57:49.220Z,92.80
2022-11-08T04:00:19.812Z,93.00
2022-11-08T04:02:47.733Z,92.70
2022-11-08T04:05:16.087Z,92.70
2022-11-08T04:07:43.657Z,92.80
2022-11-08T04:10:12.051Z,93.00
2022-11-08T04:13:00.292Z,93.60
2022-11-08T04:15:29.199Z,93.40
2022-11-08T04:18:16.629Z,93.30
2022-11-08T04:21:06.387Z,93.50
2022-11-08T04:23:36.427Z,93.60
2022-11-08T04:26:11.527Z,93.30
2022-11-08T04:28:40.988Z,93.10
2022-11-08T04:31:14.705Z,93.30
2022-11-08T04:33:42.426Z,93.40
2022-11-08T04:36:15.733Z,93.50
2022-11-08T04:38:43.462Z,93.40
2022-11-08T04:41:13.287Z,93.10
2022-11-08T04:43:43.609Z,93.10
2022-11-08T04:46:13.804Z,93.10
2022-11-08T04:48:42.569Z,93.30
2022-11-08T04:51:16.049Z,93.20
2022-11-08T04:53:43.599Z,93.50
2022-11-08T04:56:13.338Z,93.40
2022-11-08T04:58:43.649Z,93.30
2022-11-08T05:01:15.788Z,93.40
2022-11-08T05:03:44.716Z,93.40
2022-11-08T05:06:14.583Z,93.50
2022-11-08T05:08:42.514Z,93.40
2022-11-08T05:11:12.716Z,93.30
2022-11-08T05:13:40.448Z,93.40
2022-11-08T05:16:14.051Z,93.20
2022-11-08T05:18:42.227Z,93.20
2022-11-08T05:21:34.859Z,93.10
2022-11-08T05:24:03.685Z,93.30
2022-11-08T05:26:34.314Z,93.30
2022-11-08T05:29:01.965Z,93.20
2022-11-08T05:31:29.369Z,93.00
2022-11-08T05:33:56.877Z,93.00
2022-11-08T05:36:24.464Z,93.20
2022-11-08T05:38:51.738Z,93.10
2022-11-08T05:41:21.585Z,93.30
2022-11-08T05:43:51.579Z,93.90
2022-11-08T05:46:20.264Z,93.90
2022-11-08T05:48:48.681Z,93.90
2022-11-08T05:51:18.155Z,93.80
2022-11-08T05:53:46.997Z,93.90
2022-11-08T05:56:14.646Z,93.70
2022-11-08T05:58:41.974Z,93.60
2022-11-08T06:01:15.367Z,93.80
2022-11-08T06:03:43.261Z,93.70
2022-11-08T06:06:21.037Z,93.70
2022-11-08T06:08:50.747Z,93.70
2022-11-08T06:11:25.220Z,93.60
2022-11-08T06:13:53.684Z,93.60
2022-11-08T06:16:23.095Z,93.50
2022-11-08T06:18:50.924Z,93.50
2022-11-08T06:21:20.473Z,93.50
2022-11-08T06:23:48.168Z,93.70
2022-11-08T06:26:15.447Z,93.70
2022-11-08T06:28:42.760Z,93.70
2022-11-08T06:31:10.174Z,93.90
2022-11-08T06:33:37.618Z,94.00
2022-11-08T06:36:06.942Z,94.10
2022-11-08T06:38:34.593Z,94.20
2022-11-08T06:41:02.405Z,94.00
2022-11-08T06:43:30.025Z,94.10
2022-11-08T06:46:02.145Z,94.40
2022-11-08T06:48:35.004Z,94.60
2022-11-08T06:51:04.467Z,94.40
2022-11-08T06:53:32.648Z,94.60
2022-11-08T06:56:03.829Z,94.70
2022-11-08T06:58:32.131Z,94.50
2022-11-08T07:01:04.214Z,94.90
2022-11-08T07:03:32.430Z,94.80
2022-11-08T07:06:06.494Z,95.00
2022-11-08T07:08:35.117Z,95.30
2022-11-08T07:11:02.943Z,95.30
2022-11-08T07:13:30.378Z,95.30
2022-11-08T07:15:59.747Z,95.40
2022-11-08T07:18:27.925Z,95.30
2022-11-08T07:21:01.812Z,95.60
2022-11-08T07:23:29.462Z,95.60
2022-11-08T07:25:59.520Z,95.40
2022-11-08T07:28:26.819Z,95.70
2022-11-08T07:30:59.072Z,95.50
2022-11-08T07:33:26.678Z,95.80
2022-11-08T07:35:54.202Z,95.50
2022-11-08T07:38:22.779Z,95.20
2022-11-08T07:40:51.555Z,95.50
2022-11-08T07:43:24.771Z,95.40
2022-11-08T07:45:56.537Z,95.80
2022-11-08T07:48:24.841Z,96.10
2022-11-08T07:50:52.754Z,96.30
2022-11-08T07:53:20.795Z,96.20
2022-11-08T07:55:54.998Z,96.30
2022-11-08T07:58:22.392Z,96.40
2022-11-08T08:00:50.166Z,96.50
2022-11-08T08:03:18.444Z,96.60
2022-11-08T08:05:50.613Z,96.50
2022-11-08T08:08:18.789Z,96.60
2022-11-08T08:10:46.167Z,96.50
2022-11-08T08:13:13.940Z,96.40
2022-11-08T08:15:41.644Z,96.60
2022-11-08T08:18:10.861Z,96.50
2022-11-08T08:20:38.926Z,96.40
2022-11-08T08:23:06.682Z,96.60
2022-11-08T08:25:34.510Z,96.60
2022-11-08T08:28:01.918Z,96.50
2022-11-08T08:30:30.897Z,96.60
2022-11-08T08:36:00.665Z,96.70
2022-11-08T08:38:27.928Z,97.10
2022-11-08T08:40:55.235Z,97.50
2022-11-08T08:43:23.171Z,97.60
2022-11-08T08:45:50.988Z,97.10
2022-11-08T08:48:18.813Z,97.00
2022-11-08T08:50:46.561Z,96.90
2022-11-08T08:53:13.907Z,96.80
2022-11-08T08:55:42.781Z,96.60
2022-11-08T08:58:10.907Z,96.60
2022-11-08T09:03:27.746Z,96.40
2022-11-08T09:06:00.588Z,96.40
2022-11-08T09:08:28.877Z,96.40
2022-11-08T09:10:58.156Z,96.30
2022-11-08T09:13:26.473Z,96.20
2022-11-08T09:15:54.796Z,96.30
2022-11-08T09:18:22.812Z,96.20
2022-11-08T09:20:50.148Z,96.20
2022-11-08T09:23:18.143Z,96.20
2022-11-08T09:25:45.765Z,96.60
2022-11-08T09:28:13.120Z,96.90
2022-11-08T09:30:40.421Z,96.70
2022-11-08T09:33:07.829Z,96.80
2022-11-08T09:35:36.253Z,96.90
2022-11-08T09:38:03.542Z,97.00
2022-11-08T09:40:40.628Z,96.80
2022-11-08T09:43:39.124Z,96.80
2022-11-08T09:46:11.460Z,96.70
2022-11-08T09:48:44.144Z,95.20
2022-11-08T09:51:16.911Z,95.20
2022-11-08T09:53:55.169Z,94.80
2022-11-08T09:56:25.496Z,94.00
2022-11-08T09:59:02.163Z,94.20
2022-11-08T10:01:34.800Z,94.40
2022-11-08T10:04:22.203Z,94.30
2022-11-08T10:07:03.032Z,94.40
2022-11-08T10:09:46.431Z,94.40
2022-11-08T10:12:32.624Z,94.30
2022-11-08T10:15:32.051Z,93.80
2022-11-08T10:18:21.133Z,94.10
2022-11-08T10:20:57.321Z,94.40
2022-11-08T10:23:40.480Z,93.50
2022-11-08T10:26:24.129Z,93.10
2022-11-08T10:29:01.837Z,92.50
2022-11-08T10:31:35.026Z,92.30
2022-11-08T10:34:09.389Z,92.20
2022-11-08T10:36:49.136Z,91.80
2022-11-08T10:39:31.057Z,92.20
2022-11-08T10:42:26.782Z,92.10
2022-11-08T10:44:54.351Z,92.70
2022-11-08T10:47:24.504Z,92.10
2022-11-08T10:49:55.508Z,92.00
2022-11-08T10:52:34.869Z,92.00
2022-11-08T10:55:05.609Z,92.00
2022-11-08T10:57:32.856Z,92.00
2022-11-08T11:00:22.133Z,92.20
2022-11-08T11:03:15.813Z,92.10
2022-11-08T11:05:57.908Z,92.00
2022-11-08T11:08:25.520Z,92.10
2022-11-08T11:10:53.191Z,92.10
2022-11-08T11:16:03.045Z,92.00
2022-11-08T11:18:35.286Z,92.00
2022-11-08T11:21:18.564Z,91.80
2022-11-08T11:23:55.966Z,91.70
2022-11-08T11:26:28.519Z,91.50
2022-11-08T11:29:09.276Z,91.80
2022-11-08T11:31:42.324Z,91.90
2022-11-08T11:34:19.430Z,91.80
2022-11-08T11:37:22.484Z,91.40
2022-11-08T11:40:06.136Z,91.70
2022-11-08T11:42:45.648Z,91.50
2022-11-08T11:45:20.171Z,91.60
2022-11-08T11:47:53.404Z,91.60
2022-11-08T11:50:29.130Z,91.70
2022-11-08T11:52:58.124Z,91.70
2022-11-08T11:56:03.387Z,91.40
2022-11-08T11:59:04.945Z,91.70
2022-11-08T12:02:07.007Z,91.60
2022-11-08T12:05:08.603Z,91.70
2022-11-08T12:07:50.769Z,91.50
2022-11-08T12:10:57.783Z,91.60
2022-11-08T12:14:01.980Z,91.80
2022-11-08T12:16:52.036Z,91.80
2022-11-08T12:19:42.768Z,91.80
2022-11-08T12:22:31.197Z,91.70
2022-11-08T12:25:18.969Z,91.60
2022-11-08T12:27:54.907Z,91.20
2022-11-08T12:30:49.399Z,91.10
2022-11-08T12:33:45.638Z,91.90
2022-11-08T12:36:34.816Z,91.10
2022-11-08T12:39:12.463Z,91.20
2022-11-08T12:42:04.494Z,91.20
2022-11-08T12:44:57.635Z,91.10
2022-11-08T12:47:47.192Z,91.40
2022-11-08T12:50:23.631Z,91.20
2022-11-08T12:53:15.544Z,91.30
2022-11-08T12:55:47.049Z,91.30
2022-11-08T12:58:34.370Z,91.00
2022-11-08T13:01:13.410Z,91.10
2022-11-08T13:03:45.687Z,90.80
2022-11-08T13:06:24.573Z,90.70
2022-11-08T13:09:10.473Z,90.70
2022-11-08T13:11:48.000Z,90.80
2022-11-08T13:14:17.689Z,90.70
2022-11-08T13:17:06.226Z,90.70
2022-11-08T13:19:49.429Z,90.70
2022-11-08T13:22:29.047Z,90.70
2022-11-08T13:25:08.367Z,90.70
2022-11-08T13:27:40.995Z,90.80
2022-11-08T13:30:11.292Z,90.90
2022-11-08T13:33:04.509Z,90.70
2022-11-08T13:35:49.708Z,90.90
2022-11-08T13:38:48.148Z,90.90
2022-11-08T13:41:21.208Z,90.90
2022-11-08T13:43:49.624Z,90.50
2022-11-08T13:46:25.571Z,90.50
2022-11-08T13:49:01.825Z,90.80
2022-11-08T13:51:36.299Z,90.90
2022-11-08T13:54:24.040Z,90.90
2022-11-08T13:56:56.080Z,90.90
2022-11-08T13:59:32.710Z,91.40
2022-11-08T14:02:21.842Z,91.20
2022-11-08T14:04:49.361Z,91.30
2022-11-08T14:07:47.444Z,91.30
2022-11-08T14:10:23.276Z,91.30
2022-11-08T14:13:07.569Z,91.30
2022-11-08T14:15:46.847Z,91.70
2022-11-08T14:18:29.253Z,91.50
2022-11-08T14:20:57.744Z,91.50
2022-11-08T14:23:29.169Z,91.40
2022-11-08T14:26:15.349Z,91.30
2022-11-08T14:28:45.613Z,91.60
2022-11-08T14:31:28.664Z,91.30
2022-11-08T14:33:56.600Z,91.20
2022-11-08T14:36:25.664Z,91.00
2022-11-08T14:39:03.938Z,90.60
2022-11-08T14:41:33.545Z,90.70
2022-11-08T14:44:02.302Z,90.50
2022-11-08T14:46:34.287Z,90.20
2022-11-08T14:49:32.064Z,90.50
2022-11-08T14:52:17.181Z,90.50
2022-11-08T14:54:46.802Z,90.30
2022-11-08T14:57:42.245Z,90.20
2022-11-08T15:00:26.619Z,90.50
2022-11-08T15:02:56.136Z,90.40
2022-11-08T15:05:40.941Z,90.20
2022-11-08T15:08:22.555Z,90.30
2022-11-08T15:11:00.768Z,89.70
2022-11-08T15:13:34.784Z,89.60
2022-11-08T15:16:04.850Z,90.10
2022-11-08T15:18:43.535Z,90.00
2022-11-08T15:21:28.777Z,89.50
2022-11-08T15:24:13.181Z,89.50
2022-11-08T15:26:58.498Z,89.60
2022-11-08T15:29:26.503Z,89.60
2022-11-08T15:32:01.075Z,90.10
2022-11-08T15:34:40.515Z,89.90
2022-11-08T15:37:33.868Z,89.50
2022-11-08T15:40:04.196Z,89.40
2022-11-08T15:42:33.472Z,89.70
2022-11-08T15:45:04.705Z,89.80
2022-11-08T15:47:35.030Z,90.00
2022-11-08T15:50:02.685Z,89.80
2022-11-08T15:52:30.388Z,90.10
2022-11-08T15:55:00.869Z,90.20
2022-11-08T15:57:28.125Z,90.10
2022-11-08T15:59:55.705Z,90.10
2022-11-08T16:02:24.758Z,90.20
2022-11-08T16:04:52.074Z,90.60
2022-11-08T16:07:19.465Z,91.10
2022-11-08T16:09:47.152Z,90.70
2022-11-08T16:12:15.653Z,90.90
2022-11-08T16:14:43.044Z,91.30
2022-11-08T16:17:14.337Z,91.10
2022-11-08T16:19:41.665Z,91.20
2022-11-08T16:22:09.152Z,91.20
2022-11-08T16:24:36.418Z,91.20
2022-11-08T16:27:03.813Z,91.30
2022-11-08T16:29:31.710Z,91.40
2022-11-08T16:31:59.021Z,91.40
2022-11-08T16:34:26.278Z,91.30
2022-11-08T16:36:54.620Z,91.40
2022-11-08T16:39:26.144Z,91.40
2022-11-08T16:41:53.484Z,91.50
2022-11-08T16:44:20.877Z,91.50
2022-11-08T16:46:48.232Z,91.60
2022-11-08T16:49:23.965Z,91.30
2022-11-08T16:51:51.324Z,91.30
2022-11-08T16:54:23.824Z,91.50
2022-11-08T16:56:51.697Z,91.30
2022-11-08T16:59:19.206Z,91.50
2022-11-08T17:01:48.660Z,91.70
2022-11-08T17:04:16.056Z,91.60
2022-11-08T17:06:43.485Z,91.70
2022-11-08T17:09:11.176Z,91.80
2022-11-08T17:11:39.600Z,91.80
2022-11-08T17:14:09.909Z,91.80
2022-11-08T17:16:37.212Z,92.00
2022-11-08T17:19:05.248Z,91.90
2022-11-08T17:21:48.285Z,92.20
2022-11-08T17:24:21.136Z,92.10
2022-11-08T17:26:49.165Z,91.90
2022-11-08T17:29:16.472Z,91.90
2022-11-08T17:31:44.225Z,91.90
2022-11-08T17:34:11.641Z,92.10
2022-11-08T17:36:38.963Z,92.00
2022-11-08T17:39:06.293Z,91.80
2022-11-08T17:41:33.956Z,91.90
2022-11-08T17:44:01.437Z,92.10
2022-11-08T17:46:28.785Z,92.10
2022-11-08T17:48:56.117Z,92.10
2022-11-08T17:51:23.671Z,92.10
2022-11-08T17:53:51.016Z,92.30
2022-11-08T17:56:19.160Z,92.20
2022-11-08T17:58:46.479Z,92.40
2022-11-08T18:01:15.782Z,92.50
2022-11-08T18:03:43.603Z,92.60
2022-11-08T18:06:13.150Z,92.80
2022-11-08T18:08:41.854Z,92.60
2022-11-08T18:11:09.252Z,92.60
2022-11-08T18:13:36.630Z,92.70
2022-11-08T18:16:07.960Z,92.70
2022-11-08T18:18:35.743Z,92.70
2022-11-08T18:21:03.258Z,92.70
2022-11-08T18:23:30.869Z,92.70
2022-11-08T18:25:58.292Z,92.70
2022-11-08T18:28:25.975Z,92.80
2022-11-08T18:30:53.634Z,92.90
2022-11-08T18:33:21.577Z,92.90
2022-11-08T18:35:49.178Z,92.90
2022-11-08T18:38:16.722Z,93.00
2022-11-08T18:40:48.037Z,93.00
2022-11-08T18:43:15.907Z,93.00
2022-11-08T18:45:43.469Z,93.10
2022-11-08T18:48:10.840Z,93.00
2022-11-08T18:50:38.513Z,93.00
2022-11-08T18:53:07.060Z,93.00
2022-11-08T18:55:34.816Z,93.00
2022-11-08T18:58:02.553Z,93.10
2022-11-08T19:00:29.948Z,93.20
2022-11-08T19:02:57.321Z,93.20
2022-11-08T19:05:24.978Z,93.30
2022-11-08T19:07:52.317Z,93.10
2022-11-08T19:10:19.844Z,93.10
2022-11-08T19:12:47.139Z,93.10
2022-11-08T19:15:14.956Z,93.00
2022-11-08T19:17:42.764Z,93.20
2022-11-08T19:20:10.427Z,93.30
2022-11-08T19:22:37.805Z,93.30
2022-11-08T19:25:05.421Z,93.30
2022-11-08T19:27:32.804Z,93.30
2022-11-08T19:30:01.417Z,93.30
2022-11-08T19:32:28.727Z,93.40
2022-11-08T19:34:56.068Z,93.30
2022-11-08T19:37:23.668Z,93.40
2022-11-08T19:39:51.424Z,93.40
2022-11-08T19:42:18.892Z,93.50
2022-11-08T19:44:46.179Z,93.60
2022-11-08T19:47:13.608Z,93.60
2022-11-08T19:49:41.247Z,93.70
2022-11-08T19:52:09.440Z,93.60
2022-11-08T19:54:36.756Z,93.70
2022-11-08T19:57:05.467Z,93.60
2022-11-08T19:59:33.656Z,93.70
2022-11-08T20:02:01.124Z,93.70
2022-11-08T20:04:28.625Z,93.70
2022-11-08T20:06:56.255Z,93.70
2022-11-08T20:09:29.982Z,93.80
2022-11-08T20:11:58.146Z,93.80
2022-11-08T20:14:25.637Z,93.90
2022-11-08T20:16:54.102Z,94.00
2022-11-08T20:19:21.646Z,94.00
2022-11-08T20:21:50.158Z,94.00
2022-11-08T20:24:18.785Z,94.10
2022-11-08T20:26:46.094Z,94.00
2022-11-08T20:29:14.762Z,94.00
2022-11-08T20:31:42.664Z,94.10
2022-11-08T20:34:11.816Z,94.10
2022-11-08T20:36:40.863Z,94.20
2022-11-08T20:39:08.373Z,94.20
2022-11-08T20:41:37.075Z,94.20
2022-11-08T20:44:06.305Z,94.20
2022-11-08T20:46:34.761Z,94.40
2022-11-08T20:49:03.821Z,94.30
2022-11-08T20:51:31.796Z,94.40
2022-11-08T20:54:00.409Z,94.50
2022-11-08T20:56:28.900Z,94.70
2022-11-08T20:58:57.014Z,94.60
2022-11-08T21:01:29.451Z,94.80
2022-11-08T21:03:57.314Z,94.60
2022-11-08T21:06:26.795Z,94.60
2022-11-08T21:09:00.908Z,94.60
2022-11-08T21:11:30.906Z,94.80
2022-11-08T21:13:58.566Z,94.80
2022-11-08T21:16:30.547Z,94.90
2022-11-08T21:18:59.491Z,94.80
2022-11-08T21:21:27.275Z,95.00
2022-11-08T21:23:54.793Z,95.10
2022-11-08T21:26:24.011Z,95.20
2022-11-08T21:28:52.086Z,95.10
2022-11-08T21:31:19.644Z,95.10
2022-11-08T21:33:47.031Z,95.00
2022-11-08T21:36:14.403Z,95.00
2022-11-08T21:38:41.731Z,95.00
2022-11-08T21:41:10.229Z,95.20
2022-11-08T21:43:42.749Z,95.00
2022-11-08T21:46:28.379Z,95.10
2022-11-08T21:48:58.250Z,95.20
2022-11-08T21:51:26.470Z,95.30
2022-11-08T21:53:55.927Z,95.50
2022-11-08T21:56:25.196Z,95.60
2022-11-08T21:58:52.992Z,95.70
2022-11-08T22:01:25.361Z,95.90
2022-11-08T22:03:54.766Z,95.80
2022-11-08T22:06:22.556Z,95.90
2022-11-08T22:08:50.046Z,96.00
2022-11-08T22:11:17.334Z,96.00
2022-11-08T22:13:44.692Z,96.00
2022-11-08T22:16:12.748Z,96.00
2022-11-08T22:19:03.632Z,96.10
2022-11-08T22:21:40.681Z,96.10
2022-11-08T22:24:18.107Z,96.20
2022-11-08T22:26:46.215Z,96.40
2022-11-08T22:29:14.211Z,96.50
2022-11-08T22:31:42.482Z,96.60
2022-11-08T22:34:10.609Z,96.70
2022-11-08T22:36:44.547Z,96.80
2022-11-08T22:39:15.580Z,96.80
2022-11-08T22:41:44.316Z,96.80
2022-11-08T22:44:12.880Z,96.90
2022-11-08T22:46:41.844Z,96.90
2022-11-08T22:49:10.380Z,96.90
2022-11-08T22:51:38.987Z,96.80
2022-11-08T22:54:06.808Z,96.70
2022-11-08T22:56:35.251Z,96.70
2022-11-08T22:59:03.528Z,96.60
2022-11-08T23:01:30.931Z,96.70
2022-11-08T23:03:58.226Z,96.70
2022-11-08T23:06:25.555Z,96.70
2022-11-08T23:08:52.816Z,96.70
2022-11-08T23:11:38.947Z,96.70
2022-11-08T23:14:25.605Z,96.70
2022-11-08T23:16:52.901Z,96.70
2022-11-08T23:19:54.899Z,96.60
2022-11-08T23:22:41.132Z,96.70
2022-11-08T23:25:09.031Z,97.10
2022-11-08T23:27:54.919Z,96.80
2022-11-08T23:30:40.735Z,96.80
2022-11-08T23:33:08.162Z,96.80
2022-11-08T23:35:35.554Z,96.90
2022-11-08T23:38:03.313Z,96.90
2022-11-08T23:40:49.132Z,97.00
2022-11-08T23:43:37.687Z,97.00
2022-11-08T23:46:10.029Z,97.00
2022-11-08T23:48:38.556Z,97.00
2022-11-08T23:51:06.864Z,96.90
2022-11-08T23:53:39.864Z,97.00
2022-11-08T23:56:07.532Z,97.00
2022-11-08T23:58:34.900Z,97.00
